createdAt,value
2019-03-27T00:02:20.400Z,68.03
2019-03-27T00:04:48.795Z,68.43
2019-03-27T00:07:17.184Z,68.52
2019-03-27T00:09:45.566Z,69.09
2019-03-27T00:12:13.959Z,69.38
2019-03-27T00:14:42.361Z,69.30
2019-03-27T00:17:10.758Z,69.89
2019-03-27T00:19:39.150Z,69.87
2019-03-27T00:22:07.579Z,70.25
2019-03-27T00:24:35.984Z,69.98
2019-03-27T00:27:04.439Z,70.45
2019-03-27T00:29:32.840Z,70.86
2019-03-27T00:32:01.231Z,71.55
2019-03-27T00:34:29.626Z,70.94
2019-03-27T00:36:58.035Z,71.45
2019-03-27T00:39:26.425Z,71.32
2019-03-27T00:41:54.826Z,71.86
2019-03-27T00:44:23.238Z,71.89
2019-03-27T00:46:51.631Z,71.90
2019-03-27T00:49:20.028Z,72.12
2019-03-27T00:51:48.433Z,72.11
2019-03-27T00:54:16.833Z,72.03
2019-03-27T00:56:45.227Z,72.25
2019-03-27T00:59:13.729Z,72.37
2019-03-27T01:01:42.136Z,72.07
2019-03-27T01:04:10.528Z,73.17
2019-03-27T01:06:38.916Z,72.97
2019-03-27T01:09:07.304Z,73.03
2019-03-27T01:11:35.682Z,73.36
2019-03-27T01:14:04.152Z,73.39
2019-03-27T01:16:32.549Z,73.07
2019-03-27T01:19:00.931Z,73.20
2019-03-27T01:21:29.320Z,73.39
2019-03-27T01:23:57.708Z,73.39
2019-03-27T01:26:26.090Z,73.68
2019-03-27T01:28:54.482Z,73.38
2019-03-27T01:31:22.870Z,73.69
2019-03-27T01:33:51.260Z,73.65
2019-03-27T01:36:19.646Z,73.98
2019-03-27T01:38:48.108Z,74.05
2019-03-27T01:41:16.564Z,73.95
2019-03-27T01:43:44.884Z,74.08
2019-03-27T01:46:13.271Z,73.94
2019-03-27T01:48:41.661Z,73.66
2019-03-27T01:51:10.121Z,73.79
2019-03-27T01:53:38.503Z,73.92
2019-03-27T01:56:06.894Z,74.09
2019-03-27T01:58:35.324Z,73.95
2019-03-27T02:01:04.015Z,74.17
2019-03-27T02:03:32.368Z,74.64
2019-03-27T02:06:00.750Z,74.82
2019-03-27T02:08:29.142Z,75.01
2019-03-27T02:10:57.525Z,74.61
2019-03-27T02:13:25.914Z,75.02
2019-03-27T02:16:06.120Z,74.39
2019-03-27T02:18:24.424Z,74.48
2019-03-27T02:20:52.883Z,74.41
2019-03-27T02:23:21.269Z,74.46
2019-03-27T02:25:49.658Z,74.63
2019-03-27T02:28:18.042Z,74.50
2019-03-27T02:30:46.513Z,74.65
2019-03-27T02:33:14.894Z,75.02
2019-03-27T02:35:43.371Z,75.38
2019-03-27T02:38:11.749Z,76.02
2019-03-27T02:40:40.154Z,75.80
2019-03-27T02:43:08.564Z,76.06
2019-03-27T02:45:36.998Z,75.49
2019-03-27T02:48:05.390Z,75.74
2019-03-27T02:50:33.918Z,75.76
2019-03-27T02:53:02.280Z,76.11
2019-03-27T02:55:30.684Z,76.22
2019-03-27T02:57:59.087Z,75.86
2019-03-27T03:00:27.492Z,76.09
2019-03-27T03:02:55.865Z,75.81
2019-03-27T03:05:24.278Z,75.97
2019-03-27T03:07:52.697Z,76.23
2019-03-27T03:10:21.237Z,75.86
2019-03-27T03:12:49.629Z,76.30
2019-03-27T03:15:22.215Z,76.09
2019-03-27T03:17:50.828Z,76.22
2019-03-27T03:20:19.193Z,76.51
2019-03-27T03:22:47.576Z,76.14
2019-03-27T03:25:16.099Z,76.63
2019-03-27T03:27:44.486Z,76.49
2019-03-27T03:30:12.951Z,76.53
2019-03-27T03:32:41.383Z,76.66
2019-03-27T03:35:10.710Z,76.49
2019-03-27T03:37:39.075Z,76.63
2019-03-27T03:40:08.921Z,76.14
2019-03-27T03:42:37.520Z,76.35
2019-03-27T03:45:07.550Z,76.43
2019-03-27T03:47:35.996Z,76.69
2019-03-27T03:50:05.923Z,76.62
2019-03-27T03:52:34.410Z,76.46
2019-03-27T03:55:02.836Z,76.51
2019-03-27T03:57:31.648Z,76.50
2019-03-27T04:00:03.244Z,76.60
2019-03-27T04:02:34.124Z,76.94
2019-03-27T04:05:04.290Z,76.84
2019-03-27T04:07:32.691Z,76.84
2019-03-27T04:10:01.152Z,76.96
2019-03-27T04:12:29.527Z,77.03
2019-03-27T04:14:57.906Z,77.12
2019-03-27T04:17:26.329Z,77.04
2019-03-27T04:19:54.745Z,77.11
2019-03-27T04:22:23.171Z,76.67
2019-03-27T04:24:51.549Z,76.77
2019-03-27T04:27:19.974Z,77.08
2019-03-27T04:29:48.391Z,77.06
2019-03-27T04:32:16.790Z,76.65
2019-03-27T04:34:47.071Z,76.79
2019-03-27T04:37:15.343Z,76.72
2019-03-27T04:39:44.656Z,76.47
2019-03-27T04:42:13.056Z,76.56
2019-03-27T04:44:41.508Z,76.65
2019-03-27T04:47:09.930Z,76.75
2019-03-27T04:49:39.330Z,76.48
2019-03-27T04:52:07.724Z,76.63
2019-03-27T04:54:36.135Z,76.78
2019-03-27T04:57:04.555Z,76.71
2019-03-27T04:59:32.908Z,76.61
2019-03-27T05:02:01.330Z,76.60
2019-03-27T05:04:29.986Z,76.79
2019-03-27T05:06:58.401Z,76.86
2019-03-27T05:09:26.770Z,76.59
2019-03-27T05:11:55.190Z,76.67
2019-03-27T05:14:23.602Z,76.84
2019-03-27T05:16:51.989Z,77.01
2019-03-27T05:19:20.412Z,76.97
2019-03-27T05:21:48.882Z,76.88
2019-03-27T05:24:17.273Z,77.06
2019-03-27T05:26:45.657Z,77.02
2019-03-27T05:29:14.043Z,76.88
2019-03-27T05:31:42.431Z,76.87
2019-03-27T05:34:10.895Z,76.79
2019-03-27T05:36:39.323Z,76.55
2019-03-27T05:39:07.708Z,76.76
2019-03-27T05:41:36.108Z,76.61
2019-03-27T05:44:04.501Z,76.77
2019-03-27T05:46:32.913Z,76.66
2019-03-27T05:49:01.306Z,76.88
2019-03-27T05:51:29.774Z,76.59
2019-03-27T05:53:58.173Z,76.68
2019-03-27T05:56:26.654Z,76.76
2019-03-27T05:58:54.994Z,76.72
2019-03-27T06:01:23.385Z,76.75
2019-03-27T06:03:51.880Z,76.59
2019-03-27T06:06:20.305Z,76.58
2019-03-27T06:08:48.725Z,76.16
2019-03-27T06:11:17.109Z,76.05
2019-03-27T06:13:45.997Z,76.04
2019-03-27T06:16:14.444Z,76.07
2019-03-27T06:18:42.795Z,76.12
2019-03-27T06:21:11.222Z,75.67
2019-03-27T06:23:39.571Z,75.75
2019-03-27T06:26:07.961Z,75.75
2019-03-27T06:28:36.346Z,75.64
2019-03-27T06:31:04.772Z,75.26
2019-03-27T06:33:33.231Z,74.14
2019-03-27T06:36:01.617Z,74.62
2019-03-27T06:38:30.044Z,74.75
2019-03-27T06:40:58.441Z,74.31
2019-03-27T06:43:26.826Z,74.41
2019-03-27T06:45:58.278Z,74.65
2019-03-27T06:48:26.711Z,74.08
2019-03-27T06:50:59.189Z,73.62
2019-03-27T06:53:27.616Z,73.79
2019-03-27T06:55:57.023Z,73.44
2019-03-27T06:58:25.406Z,73.48
2019-03-27T07:00:53.853Z,73.54
2019-03-27T07:03:22.346Z,72.96
2019-03-27T07:05:50.680Z,73.71
2019-03-27T07:08:19.075Z,72.44
2019-03-27T07:10:47.463Z,71.63
2019-03-27T07:13:15.855Z,71.83
2019-03-27T07:15:45.221Z,72.33
2019-03-27T07:18:13.608Z,72.60
2019-03-27T07:20:41.997Z,71.97
2019-03-27T07:23:10.502Z,72.19
2019-03-27T07:25:38.891Z,72.48
2019-03-27T07:28:07.286Z,71.97
2019-03-27T07:30:35.677Z,71.53
2019-03-27T07:33:04.126Z,71.95
2019-03-27T07:35:32.514Z,71.59
2019-03-27T07:38:02.890Z,71.17
2019-03-27T07:40:31.312Z,71.57
2019-03-27T07:42:59.731Z,71.27
2019-03-27T07:45:28.151Z,71.48
2019-03-27T07:47:57.523Z,70.79
2019-03-27T07:50:25.914Z,70.51
2019-03-27T07:52:54.308Z,71.17
2019-03-27T07:55:22.730Z,70.90
2019-03-27T07:57:51.111Z,69.71
2019-03-27T08:00:24.051Z,70.10
2019-03-27T08:02:52.479Z,70.42
2019-03-27T08:05:20.860Z,70.24
2019-03-27T08:07:49.243Z,69.66
2019-03-27T08:10:17.627Z,68.38
2019-03-27T08:12:46.016Z,67.86
2019-03-27T08:15:14.740Z,68.58
2019-03-27T08:17:43.135Z,68.05
2019-03-27T08:20:13.612Z,67.30
2019-03-27T08:22:41.997Z,67.87
2019-03-27T08:25:10.833Z,68.33
2019-03-27T08:27:39.289Z,68.04
2019-03-27T08:30:10.796Z,68.17
2019-03-27T08:32:39.219Z,67.15
2019-03-27T08:35:08.041Z,66.22
2019-03-27T08:37:36.536Z,65.91
2019-03-27T08:40:07.583Z,65.53
2019-03-27T08:42:36.810Z,65.58
2019-03-27T08:45:09.577Z,65.84
2019-03-27T08:47:39.066Z,65.42
2019-03-27T08:50:08.719Z,65.08
2019-03-27T08:52:37.169Z,65.33
2019-03-27T08:55:07.328Z,65.39
2019-03-27T08:57:35.711Z,65.95
2019-03-27T09:00:06.782Z,65.07
2019-03-27T09:02:35.194Z,64.06
2019-03-27T09:05:04.930Z,63.58
2019-03-27T09:07:33.329Z,63.62
2019-03-27T09:10:01.755Z,63.12
2019-03-27T09:12:30.209Z,63.31
2019-03-27T09:14:58.588Z,63.20
2019-03-27T09:17:27.014Z,63.76
2019-03-27T09:19:55.389Z,62.36
2019-03-27T09:22:23.771Z,62.89
2019-03-27T09:24:52.162Z,62.23
2019-03-27T09:27:20.674Z,62.22
2019-03-27T09:29:49.076Z,62.39
2019-03-27T09:32:17.496Z,61.47
2019-03-27T09:34:45.935Z,61.76
2019-03-27T09:37:14.311Z,61.01
2019-03-27T09:39:42.807Z,60.70
2019-03-27T09:42:11.192Z,60.97
2019-03-27T09:44:39.582Z,61.13
2019-03-27T09:47:08.035Z,61.23
2019-03-27T09:49:48.982Z,59.93
2019-03-27T09:52:06.538Z,58.88
2019-03-27T09:54:34.953Z,58.30
2019-03-27T09:57:03.444Z,58.59
2019-03-27T09:59:31.840Z,59.96
2019-03-27T10:02:00.255Z,59.56
2019-03-27T10:04:29.644Z,59.50
2019-03-27T10:06:58.020Z,59.73
2019-03-27T10:09:26.412Z,59.99
2019-03-27T10:11:54.820Z,60.31
2019-03-27T10:14:23.261Z,60.36
2019-03-27T10:16:51.653Z,60.03
2019-03-27T10:19:20.043Z,59.74
2019-03-27T10:21:49.482Z,59.30
2019-03-27T10:24:17.911Z,58.86
2019-03-27T10:26:46.369Z,59.07
2019-03-27T10:29:14.768Z,58.86
2019-03-27T10:31:43.199Z,58.83
2019-03-27T10:34:11.643Z,57.85
2019-03-27T10:36:40.052Z,58.15
2019-03-27T10:39:08.471Z,58.06
2019-03-27T10:41:36.893Z,57.39
2019-03-27T10:44:05.477Z,58.22
2019-03-27T10:46:33.860Z,57.37
2019-03-27T10:49:03.267Z,57.76
2019-03-27T10:51:31.665Z,57.27
2019-03-27T10:54:00.128Z,55.75
2019-03-27T10:56:28.547Z,56.32
2019-03-27T10:58:56.929Z,56.91
2019-03-27T11:01:25.392Z,56.81
2019-03-27T11:03:53.790Z,56.19
2019-03-27T11:06:22.174Z,54.45
2019-03-27T11:08:50.584Z,54.39
2019-03-27T11:11:19.035Z,52.69
2019-03-27T11:13:47.472Z,53.26
2019-03-27T11:16:15.929Z,53.26
2019-03-27T11:18:44.384Z,52.93
2019-03-27T11:21:12.815Z,51.86
2019-03-27T11:23:41.262Z,52.57
2019-03-27T11:26:09.680Z,53.33
2019-03-27T11:28:38.091Z,53.88
2019-03-27T11:31:06.503Z,53.18
2019-03-27T11:33:34.936Z,52.49
2019-03-27T11:36:03.362Z,52.99
2019-03-27T11:38:31.792Z,52.00
2019-03-27T11:41:01.882Z,50.53
2019-03-27T11:43:30.279Z,51.28
2019-03-27T11:45:58.755Z,50.77
2019-03-27T11:48:27.140Z,51.61
2019-03-27T11:50:55.522Z,52.04
2019-03-27T11:53:23.909Z,50.91
2019-03-27T11:55:52.309Z,51.22
2019-03-27T11:58:20.681Z,49.78
2019-03-27T12:00:54.714Z,49.69
2019-03-27T12:03:19.246Z,51.30
2019-03-27T12:05:47.634Z,51.77
2019-03-27T12:08:16.019Z,52.48
2019-03-27T12:10:44.401Z,51.96
2019-03-27T12:13:12.774Z,50.65
2019-03-27T12:15:41.706Z,49.92
2019-03-27T12:18:11.136Z,49.93
2019-03-27T12:20:39.604Z,49.55
2019-03-27T12:23:08.227Z,49.31
2019-03-27T12:25:36.618Z,50.06
2019-03-27T12:28:05.198Z,49.62
2019-03-27T12:30:33.577Z,50.00
2019-03-27T12:33:01.961Z,48.47
2019-03-27T12:35:30.412Z,48.02
2019-03-27T12:37:58.896Z,47.31
2019-03-27T12:40:28.141Z,46.89
2019-03-27T12:42:56.577Z,46.67
2019-03-27T12:45:24.934Z,46.83
2019-03-27T12:47:53.344Z,46.64
2019-03-27T12:50:21.762Z,46.56
2019-03-27T12:52:50.455Z,47.17
2019-03-27T12:55:18.845Z,46.28
2019-03-27T12:57:47.224Z,46.57
2019-03-27T13:00:16.082Z,47.06
2019-03-27T13:02:44.471Z,47.87
2019-03-27T13:05:12.893Z,47.99
2019-03-27T13:07:49.875Z,47.41
2019-03-27T13:10:11.564Z,47.76
2019-03-27T13:12:39.949Z,47.45
2019-03-27T13:15:08.476Z,47.40
2019-03-27T13:17:36.866Z,47.61
2019-03-27T13:20:08.945Z,46.86
2019-03-27T13:22:38.485Z,46.90
2019-03-27T13:25:07.951Z,46.01
2019-03-27T13:27:36.378Z,46.19
2019-03-27T13:30:07.833Z,46.58
2019-03-27T13:32:36.294Z,47.08
2019-03-27T13:35:06.979Z,46.75
2019-03-27T13:37:35.607Z,46.47
2019-03-27T13:40:09.947Z,46.91
2019-03-27T13:42:38.376Z,46.35
2019-03-27T13:45:08.057Z,46.07
2019-03-27T13:47:36.439Z,47.02
2019-03-27T13:50:12.958Z,47.02
2019-03-27T13:52:41.344Z,46.51
2019-03-27T13:55:09.956Z,46.56
2019-03-27T13:57:38.451Z,46.52
2019-03-27T14:00:10.386Z,47.00
2019-03-27T14:02:38.873Z,47.33
2019-03-27T14:05:07.911Z,47.02
2019-03-27T14:07:36.710Z,46.19
2019-03-27T14:10:06.891Z,46.69
2019-03-27T14:12:35.586Z,46.59
2019-03-27T14:15:08.403Z,46.85
2019-03-27T14:17:37.001Z,46.93
2019-03-27T14:20:10.599Z,47.14
2019-03-27T14:22:39.044Z,47.08
2019-03-27T14:25:09.255Z,46.98
2019-03-27T14:27:37.670Z,46.92
2019-03-27T14:30:11.481Z,47.43
2019-03-27T14:32:40.944Z,47.21
2019-03-27T14:35:09.775Z,47.37
2019-03-27T14:37:38.540Z,46.96
2019-03-27T14:40:08.279Z,46.90
2019-03-27T14:42:38.824Z,47.24
2019-03-27T14:45:09.972Z,47.37
2019-03-27T14:47:41.814Z,47.55
2019-03-27T14:50:13.919Z,47.27
2019-03-27T14:52:42.284Z,47.36
2019-03-27T14:55:12.970Z,47.60
2019-03-27T14:57:41.368Z,47.90
2019-03-27T15:00:11.248Z,47.99
2019-03-27T15:02:39.800Z,47.94
2019-03-27T15:05:10.141Z,47.90
2019-03-27T15:07:38.535Z,47.43
2019-03-27T15:10:10.356Z,47.41
2019-03-27T15:12:39.229Z,47.70
2019-03-27T15:15:11.272Z,47.80
2019-03-27T15:17:40.344Z,47.91
2019-03-27T15:20:09.267Z,48.09
2019-03-27T15:22:37.823Z,47.85
2019-03-27T15:25:06.839Z,47.71
2019-03-27T15:27:35.466Z,47.62
2019-03-27T15:30:06.911Z,48.04
2019-03-27T15:32:35.487Z,47.96
2019-03-27T15:35:04.476Z,47.33
2019-03-27T15:37:33.007Z,47.65
2019-03-27T15:40:01.392Z,47.56
2019-03-27T15:42:30.774Z,47.81
2019-03-27T15:44:59.266Z,47.79
2019-03-27T15:47:27.755Z,47.99
2019-03-27T15:49:56.147Z,48.11
2019-03-27T15:52:35.713Z,48.32
2019-03-27T15:54:54.722Z,48.37
2019-03-27T15:57:23.144Z,48.32
2019-03-27T15:59:51.739Z,48.55
2019-03-27T16:02:20.169Z,48.64
2019-03-27T16:04:48.671Z,48.49
2019-03-27T16:07:17.092Z,48.43
2019-03-27T16:09:45.535Z,48.80
2019-03-27T16:12:13.909Z,48.65
2019-03-27T16:14:42.357Z,48.93
2019-03-27T16:17:13.761Z,48.88
2019-03-27T16:19:41.019Z,49.15
2019-03-27T16:22:09.399Z,48.88
2019-03-27T16:24:37.903Z,48.95
2019-03-27T16:27:06.403Z,49.08
2019-03-27T16:29:34.770Z,49.05
2019-03-27T16:32:03.265Z,49.10
2019-03-27T16:34:31.703Z,49.30
2019-03-27T16:37:00.154Z,49.20
2019-03-27T16:39:28.544Z,49.60
2019-03-27T16:41:57.022Z,50.11
2019-03-27T16:44:25.373Z,49.88
2019-03-27T16:46:53.750Z,49.91
2019-03-27T16:49:22.220Z,49.75
2019-03-27T16:51:50.597Z,49.70
2019-03-27T16:54:19.094Z,49.99
2019-03-27T16:56:47.475Z,50.02
2019-03-27T16:59:15.862Z,50.14
2019-03-27T17:01:44.322Z,50.11
2019-03-27T17:04:12.697Z,50.36
2019-03-27T17:06:41.078Z,50.84
2019-03-27T17:09:09.607Z,50.80
2019-03-27T17:11:38.042Z,50.13
2019-03-27T17:14:06.413Z,50.48
2019-03-27T17:16:34.850Z,50.18
2019-03-27T17:19:03.223Z,50.38
2019-03-27T17:21:31.680Z,50.65
2019-03-27T17:24:00.125Z,50.79
2019-03-27T17:26:28.523Z,50.70
2019-03-27T17:28:56.885Z,51.21
2019-03-27T17:31:25.297Z,51.13
2019-03-27T17:33:53.737Z,50.76
2019-03-27T17:36:22.130Z,50.93
2019-03-27T17:38:50.564Z,51.17
2019-03-27T17:41:18.976Z,51.29
2019-03-27T17:43:47.426Z,51.55
2019-03-27T17:46:15.855Z,51.63
2019-03-27T17:48:44.235Z,50.95
2019-03-27T17:51:12.634Z,51.02
2019-03-27T17:53:41.046Z,51.26
2019-03-27T17:56:09.533Z,51.39
2019-03-27T17:58:37.922Z,51.40
2019-03-27T18:01:06.311Z,51.52
2019-03-27T18:03:34.711Z,51.44
2019-03-27T18:06:03.242Z,51.61
2019-03-27T18:08:31.641Z,51.69
2019-03-27T18:11:00.067Z,51.63
2019-03-27T18:13:28.473Z,51.45
2019-03-27T18:15:56.934Z,51.31
2019-03-27T18:18:25.311Z,51.34
2019-03-27T18:20:53.693Z,51.48
2019-03-27T18:23:22.080Z,51.63
2019-03-27T18:25:50.514Z,51.73
2019-03-27T18:28:18.894Z,51.83
2019-03-27T18:30:47.276Z,51.92
2019-03-27T18:33:15.717Z,51.98
2019-03-27T18:35:44.123Z,52.05
2019-03-27T18:38:12.500Z,52.10
2019-03-27T18:40:40.931Z,52.15
2019-03-27T18:43:09.434Z,52.29
2019-03-27T18:45:37.819Z,52.43
2019-03-27T18:48:06.264Z,52.35
2019-03-27T18:50:34.644Z,52.31
2019-03-27T18:53:03.044Z,52.26
2019-03-27T18:55:31.491Z,52.47
2019-03-27T18:58:00.859Z,52.64
2019-03-27T19:00:29.384Z,52.69
2019-03-27T19:02:57.778Z,52.84
2019-03-27T19:05:26.153Z,52.97
2019-03-27T19:07:54.689Z,53.08
2019-03-27T19:10:23.069Z,53.22
2019-03-27T19:12:51.453Z,53.23
2019-03-27T19:15:19.877Z,53.33
2019-03-27T19:17:48.346Z,53.31
2019-03-27T19:20:16.796Z,53.47
2019-03-27T19:22:45.217Z,53.58
2019-03-27T19:25:13.775Z,53.42
2019-03-27T19:27:42.225Z,53.49
2019-03-27T19:30:11.178Z,53.60
2019-03-27T19:32:39.600Z,53.52
2019-03-27T19:35:08.346Z,53.63
2019-03-27T19:37:36.780Z,53.53
2019-03-27T19:40:06.047Z,53.72
2019-03-27T19:42:34.688Z,53.75
2019-03-27T19:45:03.518Z,53.73
2019-03-27T19:47:31.901Z,53.78
2019-03-27T19:50:00.458Z,53.85
2019-03-27T19:52:28.804Z,53.87
2019-03-27T19:54:57.179Z,53.92
2019-03-27T19:57:25.572Z,54.11
2019-03-27T19:59:53.955Z,54.34
2019-03-27T20:02:22.382Z,54.55
2019-03-27T20:04:50.802Z,54.74
2019-03-27T20:07:19.184Z,54.89
2019-03-27T20:09:47.566Z,55.00
2019-03-27T20:12:15.959Z,55.24
2019-03-27T20:14:44.358Z,55.33
2019-03-27T20:17:12.768Z,55.59
2019-03-27T20:19:41.162Z,55.77
2019-03-27T20:22:09.593Z,55.98
2019-03-27T20:24:41.271Z,56.13
2019-03-27T20:27:08.143Z,56.05
2019-03-27T20:29:36.556Z,56.04
2019-03-27T20:32:05.045Z,56.19
2019-03-27T20:34:33.431Z,56.29
2019-03-27T20:37:01.819Z,56.40
2019-03-27T20:39:30.288Z,56.47
2019-03-27T20:41:58.673Z,56.60
2019-03-27T20:44:27.061Z,56.69
2019-03-27T20:46:55.486Z,56.75
2019-03-27T20:49:23.944Z,56.85
2019-03-27T20:51:54.787Z,57.04
2019-03-27T20:54:22.398Z,57.12
2019-03-27T20:56:50.777Z,57.23
2019-03-27T20:59:19.164Z,57.44
2019-03-27T21:01:47.592Z,57.59
2019-03-27T21:04:16.045Z,57.78
2019-03-27T21:06:44.436Z,57.90
2019-03-27T21:09:12.868Z,58.18
2019-03-27T21:11:41.251Z,58.65
2019-03-27T21:14:09.678Z,58.88
2019-03-27T21:16:38.368Z,59.08
2019-03-27T21:19:06.751Z,59.42
2019-03-27T21:21:35.143Z,59.88
2019-03-27T21:24:03.534Z,60.02
2019-03-27T21:26:31.969Z,60.20
2019-03-27T21:29:00.356Z,60.29
2019-03-27T21:31:28.772Z,60.47
2019-03-27T21:33:58.022Z,60.73
2019-03-27T21:36:26.450Z,61.09
2019-03-27T21:38:54.876Z,61.05
2019-03-27T21:41:23.291Z,61.06
2019-03-27T21:43:51.689Z,61.11
2019-03-27T21:46:20.132Z,61.33
2019-03-27T21:48:48.555Z,61.37
2019-03-27T21:51:16.955Z,61.49
2019-03-27T21:53:50.393Z,61.65
2019-03-27T21:56:15.459Z,61.73
2019-03-27T21:58:43.837Z,61.97
2019-03-27T22:01:12.253Z,62.07
2019-03-27T22:03:40.662Z,62.15
2019-03-27T22:06:09.113Z,62.23
2019-03-27T22:08:38.399Z,62.33
2019-03-27T22:11:06.826Z,62.45
2019-03-27T22:13:35.259Z,62.65
2019-03-27T22:16:03.659Z,62.79
2019-03-27T22:18:32.156Z,63.04
2019-03-27T22:21:00.571Z,63.09
2019-03-27T22:23:29.000Z,62.90
2019-03-27T22:25:57.420Z,63.02
2019-03-27T22:28:25.862Z,62.99
2019-03-27T22:30:54.248Z,63.03
2019-03-27T22:33:22.650Z,63.08
2019-03-27T22:35:51.079Z,63.08
2019-03-27T22:38:19.486Z,62.92
2019-03-27T22:40:47.898Z,62.84
2019-03-27T22:43:16.308Z,62.81
2019-03-27T22:45:45.607Z,62.80
2019-03-27T22:48:14.021Z,62.86
2019-03-27T22:50:42.416Z,62.97
2019-03-27T22:53:10.842Z,63.05
2019-03-27T22:55:49.193Z,62.85
2019-03-27T22:58:09.474Z,62.78
2019-03-27T23:00:40.539Z,62.61
2019-03-27T23:03:18.098Z,62.55
2019-03-27T23:05:39.156Z,62.48
2019-03-27T23:08:07.608Z,62.52
2019-03-27T23:10:36.131Z,62.71
2019-03-27T23:13:04.545Z,62.81
2019-03-27T23:15:32.999Z,62.64
2019-03-27T23:18:01.387Z,62.68
2019-03-27T23:20:29.782Z,62.83
2019-03-27T23:22:58.232Z,63.12
2019-03-27T23:25:26.649Z,63.29
2019-03-27T23:27:55.080Z,63.34
2019-03-27T23:30:23.535Z,63.42
2019-03-27T23:32:51.984Z,63.74
2019-03-27T23:35:20.412Z,63.77
2019-03-27T23:37:48.942Z,63.94
2019-03-27T23:40:17.345Z,63.99
2019-03-27T23:42:45.731Z,63.97
2019-03-27T23:45:14.568Z,63.97
2019-03-27T23:47:42.957Z,63.97
2019-03-27T23:50:11.524Z,64.06
2019-03-27T23:52:39.934Z,64.09
2019-03-27T23:55:08.563Z,64.16
2019-03-27T23:57:37.365Z,64.38
